sensor_id;sensor_type;location;lat;lon;timestamp;pressure;altitude;pressure_sealevel;temperature;humidity
20971;BME280;10644;48.834;10.088;2022-09-03T00:00:34;96351.00;;;20.30;44.09
20971;BME280;10644;48.834;10.088;2022-09-03T00:03:19;96341.06;;;20.26;44.12
20971;BME280;10644;48.834;10.088;2022-09-03T00:08:47;96334.06;;;20.26;44.05
20971;BME280;10644;48.834;10.088;2022-09-03T00:11:37;96343.69;;;20.08;44.33
20971;BME280;10644;48.834;10.088;2022-09-03T00:14:12;96347.38;;;20.06;44.33
20971;BME280;10644;48.834;10.088;2022-09-03T00:16:47;96339.72;;;20.22;44.47
20971;BME280;10644;48.834;10.088;2022-09-03T00:19:17;96345.38;;;20.35;43.80
20971;BME280;10644;48.834;10.088;2022-09-03T00:21:56;96341.47;;;20.39;43.82
20971;BME280;10644;48.834;10.088;2022-09-03T00:24:28;96342.34;;;20.65;43.42
20971;BME280;10644;48.834;10.088;2022-09-03T00:27:13;96349.25;;;20.56;43.29
20971;BME280;10644;48.834;10.088;2022-09-03T00:30:08;96344.44;;;20.44;43.75
20971;BME280;10644;48.834;10.088;2022-09-03T00:35:19;96348.47;;;20.56;43.70
20971;BME280;10644;48.834;10.088;2022-09-03T00:37:50;96353.06;;;20.62;43.52
20971;BME280;10644;48.834;10.088;2022-09-03T00:52:06;96343.72;;;20.77;43.46
20971;BME280;10644;48.834;10.088;2022-09-03T00:58:10;96347.56;;;20.90;43.35
20971;BME280;10644;48.834;10.088;2022-09-03T01:00:42;96342.84;;;20.68;43.92
20971;BME280;10644;48.834;10.088;2022-09-03T01:06:18;96343.41;;;20.80;44.19
20971;BME280;10644;48.834;10.088;2022-09-03T01:12:06;96351.00;;;20.91;43.88
20971;BME280;10644;48.834;10.088;2022-09-03T01:20:36;96335.75;;;20.96;43.85
20971;BME280;10644;48.834;10.088;2022-09-03T01:31:40;96338.84;;;20.82;44.04
20971;BME280;10644;48.834;10.088;2022-09-03T01:46:07;96335.00;;;20.43;44.82
20971;BME280;10644;48.834;10.088;2022-09-03T01:49:05;96333.19;;;20.61;44.45
20971;BME280;10644;48.834;10.088;2022-09-03T01:51:35;96333.03;;;20.62;44.95
20971;BME280;10644;48.834;10.088;2022-09-03T02:02:20;96326.34;;;20.60;45.03
20971;BME280;10644;48.834;10.088;2022-09-03T02:04:59;96334.28;;;20.76;44.57
20971;BME280;10644;48.834;10.088;2022-09-03T02:07:32;96322.50;;;20.72;45.10
20971;BME280;10644;48.834;10.088;2022-09-03T02:10:10;96328.34;;;20.66;44.63
20971;BME280;10644;48.834;10.088;2022-09-03T02:12:47;96325.59;;;20.67;44.57
20971;BME280;10644;48.834;10.088;2022-09-03T02:15:24;96340.38;;;20.67;44.90
20971;BME280;10644;48.834;10.088;2022-09-03T02:17:54;96325.81;;;20.74;44.86
20971;BME280;10644;48.834;10.088;2022-09-03T02:20:26;96325.03;;;20.81;44.69
20971;BME280;10644;48.834;10.088;2022-09-03T02:22:55;96325.69;;;20.83;44.64
20971;BME280;10644;48.834;10.088;2022-09-03T02:25:28;96322.84;;;20.94;44.65
20971;BME280;10644;48.834;10.088;2022-09-03T02:28:00;96325.63;;;20.93;44.87
20971;BME280;10644;48.834;10.088;2022-09-03T02:30:29;96333.97;;;20.79;44.95
20971;BME280;10644;48.834;10.088;2022-09-03T02:32:54;96334.91;;;20.78;45.16
20971;BME280;10644;48.834;10.088;2022-09-03T02:35:19;96320.28;;;20.77;45.29
20971;BME280;10644;48.834;10.088;2022-09-03T02:37:48;96324.88;;;20.83;45.10
20971;BME280;10644;48.834;10.088;2022-09-03T02:40:16;96331.69;;;20.84;45.11
20971;BME280;10644;48.834;10.088;2022-09-03T02:42:45;96341.72;;;20.71;45.15
20971;BME280;10644;48.834;10.088;2022-09-03T02:45:30;96335.78;;;20.61;45.30
20971;BME280;10644;48.834;10.088;2022-09-03T02:48:02;96340.94;;;20.53;45.86
20971;BME280;10644;48.834;10.088;2022-09-03T02:50:28;96332.53;;;20.59;45.60
20971;BME280;10644;48.834;10.088;2022-09-03T02:52:53;96330.56;;;20.61;45.77
20971;BME280;10644;48.834;10.088;2022-09-03T02:55:32;96334.16;;;20.60;45.68
20971;BME280;10644;48.834;10.088;2022-09-03T02:58:06;96337.78;;;20.24;46.59
20971;BME280;10644;48.834;10.088;2022-09-03T03:00:34;96341.66;;;20.20;46.87
20971;BME280;10644;48.834;10.088;2022-09-03T03:03:02;96337.41;;;20.19;46.82
20971;BME280;10644;48.834;10.088;2022-09-03T03:05:44;96336.81;;;20.25;46.57
20971;BME280;10644;48.834;10.088;2022-09-03T03:08:14;96339.41;;;20.42;46.18
20971;BME280;10644;48.834;10.088;2022-09-03T03:11:14;96334.47;;;20.57;45.92
20971;BME280;10644;48.834;10.088;2022-09-03T03:13:43;96344.72;;;20.58;45.82
20971;BME280;10644;48.834;10.088;2022-09-03T03:16:09;96346.56;;;20.66;45.93
20971;BME280;10644;48.834;10.088;2022-09-03T03:18:41;96344.28;;;20.63;45.72
20971;BME280;10644;48.834;10.088;2022-09-03T03:21:15;96345.00;;;20.73;45.81
20971;BME280;10644;48.834;10.088;2022-09-03T03:23:43;96345.00;;;20.73;45.90
20971;BME280;10644;48.834;10.088;2022-09-03T03:26:12;96342.84;;;20.68;45.96
20971;BME280;10644;48.834;10.088;2022-09-03T03:28:42;96347.59;;;20.73;45.85
20971;BME280;10644;48.834;10.088;2022-09-03T03:31:09;96347.59;;;20.73;45.86
20971;BME280;10644;48.834;10.088;2022-09-03T03:33:44;96351.50;;;20.51;46.59
20971;BME280;10644;48.834;10.088;2022-09-03T03:36:17;96353.59;;;20.48;46.67
20971;BME280;10644;48.834;10.088;2022-09-03T03:38:43;96346.69;;;20.39;46.84
20971;BME280;10644;48.834;10.088;2022-09-03T03:41:20;96357.25;;;20.20;47.24
20971;BME280;10644;48.834;10.088;2022-09-03T03:43:59;96356.38;;;20.29;46.85
20971;BME280;10644;48.834;10.088;2022-09-03T03:46:29;96358.81;;;20.30;47.08
20971;BME280;10644;48.834;10.088;2022-09-03T03:49:11;96353.84;;;20.37;46.67
20971;BME280;10644;48.834;10.088;2022-09-03T03:51:42;96367.06;;;20.26;46.92
20971;BME280;10644;48.834;10.088;2022-09-03T03:54:22;96364.59;;;20.24;47.11
20971;BME280;10644;48.834;10.088;2022-09-03T03:56:48;96361.25;;;20.32;46.90
20971;BME280;10644;48.834;10.088;2022-09-03T03:59:13;96358.44;;;20.43;46.86
20971;BME280;10644;48.834;10.088;2022-09-03T04:01:39;96354.06;;;20.43;46.75
20971;BME280;10644;48.834;10.088;2022-09-03T04:04:10;96359.44;;;20.50;46.51
20971;BME280;10644;48.834;10.088;2022-09-03T04:06:36;96358.16;;;20.46;46.65
20971;BME280;10644;48.834;10.088;2022-09-03T04:09:06;96358.75;;;20.40;46.60
20971;BME280;10644;48.834;10.088;2022-09-03T04:11:35;96367.81;;;20.36;46.99
20971;BME280;10644;48.834;10.088;2022-09-03T04:14:01;96358.44;;;20.43;47.16
20971;BME280;10644;48.834;10.088;2022-09-03T04:16:33;96362.84;;;20.25;47.20
20971;BME280;10644;48.834;10.088;2022-09-03T04:19:00;96361.25;;;20.32;47.24
20971;BME280;10644;48.834;10.088;2022-09-03T04:21:28;96359.63;;;20.31;47.48
20971;BME280;10644;48.834;10.088;2022-09-03T04:24:09;96360.00;;;20.36;46.79
20971;BME280;10644;48.834;10.088;2022-09-03T04:26:41;96353.03;;;20.36;47.14
20971;BME280;10644;48.834;10.088;2022-09-03T04:29:08;96356.56;;;20.35;47.05
20971;BME280;10644;48.834;10.088;2022-09-03T04:31:41;96365.50;;;20.33;47.04
20971;BME280;10644;48.834;10.088;2022-09-03T04:34:34;96361.88;;;20.26;47.42
20971;BME280;10644;48.834;10.088;2022-09-03T04:37:01;96356.31;;;19.94;48.22
20971;BME280;10644;48.834;10.088;2022-09-03T04:39:27;96367.22;;;20.07;48.02
20971;BME280;10644;48.834;10.088;2022-09-03T04:41:52;96356.00;;;20.24;47.41
20971;BME280;10644;48.834;10.088;2022-09-03T04:44:17;96356.75;;;20.34;47.15
20971;BME280;10644;48.834;10.088;2022-09-03T04:46:50;96351.91;;;20.21;47.51
20971;BME280;10644;48.834;10.088;2022-09-03T04:49:16;96362.19;;;20.23;47.63
20971;BME280;10644;48.834;10.088;2022-09-03T04:51:45;96366.41;;;20.24;47.71
20971;BME280;10644;48.834;10.088;2022-09-03T04:54:12;96353.59;;;20.30;47.43
20971;BME280;10644;48.834;10.088;2022-09-03T04:56:38;96353.47;;;20.32;47.73
20971;BME280;10644;48.834;10.088;2022-09-03T04:59:19;96367.91;;;20.26;47.90
20971;BME280;10644;48.834;10.088;2022-09-03T05:01:45;96350.13;;;20.22;47.81
20971;BME280;10644;48.834;10.088;2022-09-03T05:04:10;96353.41;;;20.24;47.82
20971;BME280;10644;48.834;10.088;2022-09-03T05:06:36;96360.31;;;20.15;48.03
20971;BME280;10644;48.834;10.088;2022-09-03T05:09:02;96354.00;;;20.18;47.82
20971;BME280;10644;48.834;10.088;2022-09-03T05:11:39;96359.94;;;20.28;47.31
20971;BME280;10644;48.834;10.088;2022-09-03T05:14:05;96350.94;;;20.22;47.94
20971;BME280;10644;48.834;10.088;2022-09-03T05:16:30;96359.81;;;20.12;48.17
20971;BME280;10644;48.834;10.088;2022-09-03T05:18:58;96360.69;;;20.20;47.99
20971;BME280;10644;48.834;10.088;2022-09-03T05:21:25;96368.66;;;20.19;48.10
20971;BME280;10644;48.834;10.088;2022-09-03T05:23:59;96369.91;;;20.15;48.06
20971;BME280;10644;48.834;10.088;2022-09-03T05:26:31;96375.56;;;20.10;48.14
20971;BME280;10644;48.834;10.088;2022-09-03T05:28:59;96374.91;;;19.54;49.65
20971;BME280;10644;48.834;10.088;2022-09-03T05:31:28;96367.50;;;19.59;49.64
20971;BME280;10644;48.834;10.088;2022-09-03T05:33:58;96376.88;;;19.43;50.23
20971;BME280;10644;48.834;10.088;2022-09-03T05:36:28;96368.16;;;19.44;50.36
20971;BME280;10644;48.834;10.088;2022-09-03T05:38:54;96377.78;;;19.15;51.17
20971;BME280;10644;48.834;10.088;2022-09-03T05:41:27;96375.31;;;18.77;51.89
20971;BME280;10644;48.834;10.088;2022-09-03T05:43:55;96379.28;;;18.71;52.52
20971;BME280;10644;48.834;10.088;2022-09-03T05:46:24;96367.28;;;18.61;52.70
20971;BME280;10644;48.834;10.088;2022-09-03T05:49:00;96361.88;;;18.91;51.90
20971;BME280;10644;48.834;10.088;2022-09-03T05:51:26;96379.44;;;19.25;51.59
20971;BME280;10644;48.834;10.088;2022-09-03T05:53:52;96380.94;;;19.55;51.00
20971;BME280;10644;48.834;10.088;2022-09-03T05:56:22;96371.03;;;19.41;50.90
20971;BME280;10644;48.834;10.088;2022-09-03T05:58:50;96380.56;;;19.04;52.23
20971;BME280;10644;48.834;10.088;2022-09-03T06:01:21;96379.25;;;18.81;52.94
20971;BME280;10644;48.834;10.088;2022-09-03T06:04:01;96379.97;;;18.64;53.07
20971;BME280;10644;48.834;10.088;2022-09-03T06:06:28;96384.28;;;18.92;52.78
20971;BME280;10644;48.834;10.088;2022-09-03T06:08:56;96384.50;;;19.08;52.26
20971;BME280;10644;48.834;10.088;2022-09-03T06:11:26;96384.09;;;19.22;52.13
20971;BME280;10644;48.834;10.088;2022-09-03T06:13:58;96382.78;;;19.45;51.41
20971;BME280;10644;48.834;10.088;2022-09-03T06:16:41;96385.16;;;19.29;51.97
20971;BME280;10644;48.834;10.088;2022-09-03T06:19:14;96384.91;;;19.22;52.19
20971;BME280;10644;48.834;10.088;2022-09-03T06:21:47;96385.41;;;19.35;51.68
20971;BME280;10644;48.834;10.088;2022-09-03T06:24:17;96383.34;;;19.39;52.11
20971;BME280;10644;48.834;10.088;2022-09-03T06:26:49;96379.59;;;19.51;51.49
20971;BME280;10644;48.834;10.088;2022-09-03T06:29:16;96380.88;;;19.64;51.48
20971;BME280;10644;48.834;10.088;2022-09-03T06:31:43;96388.69;;;19.82;51.22
20971;BME280;10644;48.834;10.088;2022-09-03T06:34:23;96401.63;;;19.74;51.26
20971;BME280;10644;48.834;10.088;2022-09-03T06:36:56;96392.06;;;19.92;51.24
20971;BME280;10644;48.834;10.088;2022-09-03T06:39:23;96398.50;;;19.88;51.20
20971;BME280;10644;48.834;10.088;2022-09-03T06:41:51;96394.41;;;19.95;51.08
20971;BME280;10644;48.834;10.088;2022-09-03T06:44:19;96399.81;;;19.57;51.75
20971;BME280;10644;48.834;10.088;2022-09-03T06:46:51;96402.69;;;19.27;52.36
20971;BME280;10644;48.834;10.088;2022-09-03T06:49:23;96404.63;;;19.52;52.04
20971;BME280;10644;48.834;10.088;2022-09-03T06:51:59;96406.50;;;19.59;51.78
20971;BME280;10644;48.834;10.088;2022-09-03T06:54:37;96406.00;;;19.73;51.43
20971;BME280;10644;48.834;10.088;2022-09-03T06:57:15;96409.50;;;19.82;51.20
20971;BME280;10644;48.834;10.088;2022-09-03T06:59:47;96406.66;;;20.02;51.32
20971;BME280;10644;48.834;10.088;2022-09-03T07:02:16;96409.28;;;20.20;50.96
20971;BME280;10644;48.834;10.088;2022-09-03T07:05:03;96412.28;;;20.25;51.58
20971;BME280;10644;48.834;10.088;2022-09-03T07:07:29;96415.53;;;20.27;53.32
20971;BME280;10644;48.834;10.088;2022-09-03T07:09:55;96430.03;;;20.29;53.32
20971;BME280;10644;48.834;10.088;2022-09-03T07:12:28;96420.06;;;20.25;53.19
20971;BME280;10644;48.834;10.088;2022-09-03T07:15:00;96417.47;;;20.25;53.84
20971;BME280;10644;48.834;10.088;2022-09-03T07:17:28;96412.03;;;20.18;54.65
20971;BME280;10644;48.834;10.088;2022-09-03T07:19:59;96409.66;;;20.25;54.52
20971;BME280;10644;48.834;10.088;2022-09-03T07:22:53;96401.28;;;20.31;55.08
20971;BME280;10644;48.834;10.088;2022-09-03T07:25:28;96399.63;;;20.30;55.66
20971;BME280;10644;48.834;10.088;2022-09-03T07:27:54;96393.88;;;19.91;57.83
20971;BME280;10644;48.834;10.088;2022-09-03T07:30:21;96392.69;;;20.03;57.54
20971;BME280;10644;48.834;10.088;2022-09-03T07:32:56;96397.41;;;20.17;57.87
20971;BME280;10644;48.834;10.088;2022-09-03T07:35:25;96397.06;;;20.03;60.21
20971;BME280;10644;48.834;10.088;2022-09-03T07:37:58;96381.75;;;19.55;61.15
20971;BME280;10644;48.834;10.088;2022-09-03T07:43:46;96388.25;;;19.69;61.33
20971;BME280;10644;48.834;10.088;2022-09-03T07:46:22;96385.25;;;19.64;62.21
20971;BME280;10644;48.834;10.088;2022-09-03T07:48:58;96382.25;;;19.32;63.05
20971;BME280;10644;48.834;10.088;2022-09-03T07:51:29;96396.91;;;19.23;62.77
20971;BME280;10644;48.834;10.088;2022-09-03T07:54:06;96393.69;;;19.75;60.88
20971;BME280;10644;48.834;10.088;2022-09-03T07:56:36;96391.03;;;20.12;61.01
20971;BME280;10644;48.834;10.088;2022-09-03T07:59:04;96390.41;;;20.35;60.93
20971;BME280;10644;48.834;10.088;2022-09-03T08:01:35;96386.03;;;20.53;60.36
20971;BME280;10644;48.834;10.088;2022-09-03T08:04:15;96384.97;;;20.64;58.39
20971;BME280;10644;48.834;10.088;2022-09-03T08:06:43;96395.94;;;20.93;58.65
20971;BME280;10644;48.834;10.088;2022-09-03T08:09:11;96388.13;;;21.18;57.67
20971;BME280;10644;48.834;10.088;2022-09-03T08:11:39;96385.03;;;21.23;59.02
20971;BME280;10644;48.834;10.088;2022-09-03T08:14:13;96387.69;;;20.80;60.64
20971;BME280;10644;48.834;10.088;2022-09-03T08:16:42;96381.34;;;20.57;62.38
20971;BME280;10644;48.834;10.088;2022-09-03T08:19:15;96391.09;;;20.37;62.25
20971;BME280;10644;48.834;10.088;2022-09-03T08:21:42;96387.44;;;20.48;62.29
20971;BME280;10644;48.834;10.088;2022-09-03T08:24:15;96389.13;;;21.00;60.18
20971;BME280;10644;48.834;10.088;2022-09-03T08:26:41;96395.16;;;21.26;60.46
20971;BME280;10644;48.834;10.088;2022-09-03T08:29:07;96390.31;;;21.31;61.05
20971;BME280;10644;48.834;10.088;2022-09-03T08:31:34;96391.97;;;21.40;60.72
20971;BME280;10644;48.834;10.088;2022-09-03T08:34:02;96397.34;;;21.72;59.39
20971;BME280;10644;48.834;10.088;2022-09-03T08:36:33;96388.34;;;22.08;58.25
20971;BME280;10644;48.834;10.088;2022-09-03T08:39:24;96400.09;;;22.28;57.58
20971;BME280;10644;48.834;10.088;2022-09-03T08:41:56;96400.47;;;22.57;56.67
20971;BME280;10644;48.834;10.088;2022-09-03T08:44:44;96402.78;;;22.60;56.10
20971;BME280;10644;48.834;10.088;2022-09-03T08:55:38;96399.50;;;22.98;55.82
20971;BME280;10644;48.834;10.088;2022-09-03T08:58:25;96396.53;;;23.25;55.25
20971;BME280;10644;48.834;10.088;2022-09-03T09:06:58;96395.63;;;23.48;55.07
20971;BME280;10644;48.834;10.088;2022-09-03T09:09:46;96398.25;;;23.48;54.56
20971;BME280;10644;48.834;10.088;2022-09-03T09:12:28;96403.38;;;23.34;55.21
20971;BME280;10644;48.834;10.088;2022-09-03T09:15:27;96394.81;;;23.56;55.05
20971;BME280;10644;48.834;10.088;2022-09-03T09:26:37;96396.63;;;23.94;53.97
20971;BME280;10644;48.834;10.088;2022-09-03T09:29:08;96397.44;;;23.86;53.88
20971;BME280;10644;48.834;10.088;2022-09-03T09:31:36;96397.50;;;24.09;53.92
20971;BME280;10644;48.834;10.088;2022-09-03T09:34:17;96398.25;;;24.25;52.46
20971;BME280;10644;48.834;10.088;2022-09-03T09:37:03;96395.09;;;24.30;52.73
20971;BME280;10644;48.834;10.088;2022-09-03T09:39:57;96392.53;;;24.44;53.04
20971;BME280;10644;48.834;10.088;2022-09-03T09:42:30;96386.22;;;24.39;52.87
20971;BME280;10644;48.834;10.088;2022-09-03T09:44:55;96389.16;;;24.36;51.66
20971;BME280;10644;48.834;10.088;2022-09-03T09:47:26;96385.66;;;24.21;51.81
20971;BME280;10644;48.834;10.088;2022-09-03T09:53:16;96384.56;;;24.38;52.15
20971;BME280;10644;48.834;10.088;2022-09-03T09:55:56;96373.97;;;24.54;52.18
20971;BME280;10644;48.834;10.088;2022-09-03T09:58:31;96396.69;;;24.39;52.04
20971;BME280;10644;48.834;10.088;2022-09-03T10:03:31;96393.81;;;24.26;52.81
20971;BME280;10644;48.834;10.088;2022-09-03T10:06:06;96395.44;;;24.27;53.11
20971;BME280;10644;48.834;10.088;2022-09-03T10:08:51;96389.50;;;24.55;52.43
20971;BME280;10644;48.834;10.088;2022-09-03T10:11:23;96391.94;;;24.79;52.05
20971;BME280;10644;48.834;10.088;2022-09-03T10:13:52;96386.13;;;24.92;51.57
20971;BME280;10644;48.834;10.088;2022-09-03T10:16:26;96392.22;;;25.07;51.37
20971;BME280;10644;48.834;10.088;2022-09-03T10:19:02;96390.50;;;25.14;51.33
20971;BME280;10644;48.834;10.088;2022-09-03T10:21:49;96389.25;;;25.24;51.19
20971;BME280;10644;48.834;10.088;2022-09-03T10:24:51;96392.88;;;25.52;50.99
20971;BME280;10644;48.834;10.088;2022-09-03T10:27:20;96396.16;;;25.69;49.72
20971;BME280;10644;48.834;10.088;2022-09-03T10:29:47;96393.16;;;25.72;48.76
20971;BME280;10644;48.834;10.088;2022-09-03T10:49:56;96371.78;;;26.25;47.26
20971;BME280;10644;48.834;10.088;2022-09-03T11:01:14;96352.19;;;27.18;45.43
20971;BME280;10644;48.834;10.088;2022-09-03T11:16:25;96346.06;;;28.52;43.10
20971;BME280;10644;48.834;10.088;2022-09-03T11:19:05;96346.88;;;28.78;42.54
20971;BME280;10644;48.834;10.088;2022-09-03T11:21:34;96341.19;;;28.68;41.76
20971;BME280;10644;48.834;10.088;2022-09-03T11:33:10;96340.94;;;27.71;42.36
20971;BME280;10644;48.834;10.088;2022-09-03T11:35:40;96346.25;;;27.37;42.92
20971;BME280;10644;48.834;10.088;2022-09-03T11:43:47;96326.63;;;27.46;43.41
20971;BME280;10644;48.834;10.088;2022-09-03T11:46:27;96320.06;;;27.76;43.23
20971;BME280;10644;48.834;10.088;2022-09-03T11:49:22;96316.94;;;28.00;42.33
20971;BME280;10644;48.834;10.088;2022-09-03T11:55:03;96313.94;;;28.09;42.78
20971;BME280;10644;48.834;10.088;2022-09-03T11:57:40;96315.16;;;28.20;42.24
20971;BME280;10644;48.834;10.088;2022-09-03T12:00:14;96311.53;;;28.34;41.84
20971;BME280;10644;48.834;10.088;2022-09-03T12:02:49;96314.41;;;28.39;42.26
20971;BME280;10644;48.834;10.088;2022-09-03T12:05:46;96319.69;;;28.52;42.50
20971;BME280;10644;48.834;10.088;2022-09-03T12:17:22;96331.53;;;27.49;43.25
20971;BME280;10644;48.834;10.088;2022-09-03T12:19:54;96338.84;;;27.19;44.52
20971;BME280;10644;48.834;10.088;2022-09-03T12:22:29;96337.72;;;27.35;44.26
20971;BME280;10644;48.834;10.088;2022-09-03T12:25:13;96350.78;;;27.56;43.93
20971;BME280;10644;48.834;10.088;2022-09-03T12:27:42;96351.47;;;27.71;43.59
20971;BME280;10644;48.834;10.088;2022-09-03T12:30:25;96349.41;;;27.60;43.48
20971;BME280;10644;48.834;10.088;2022-09-03T12:33:02;96348.53;;;27.53;43.84
20971;BME280;10644;48.834;10.088;2022-09-03T12:35:28;96356.09;;;27.62;43.93
20971;BME280;10644;48.834;10.088;2022-09-03T12:37:54;96350.69;;;27.77;43.39
20971;BME280;10644;48.834;10.088;2022-09-03T12:40:33;96353.78;;;27.80;43.70
20971;BME280;10644;48.834;10.088;2022-09-03T12:43:16;96361.59;;;27.74;43.60
20971;BME280;10644;48.834;10.088;2022-09-03T12:45:48;96362.88;;;27.78;43.53
20971;BME280;10644;48.834;10.088;2022-09-03T12:48:23;96362.16;;;27.63;43.58
20971;BME280;10644;48.834;10.088;2022-09-03T12:51:11;96364.00;;;27.69;43.72
20971;BME280;10644;48.834;10.088;2022-09-03T12:53:36;96358.13;;;27.67;43.58
20971;BME280;10644;48.834;10.088;2022-09-03T12:56:07;96355.47;;;27.60;44.15
20971;BME280;10644;48.834;10.088;2022-09-03T13:02:11;96365.28;;;27.39;44.80
20971;BME280;10644;48.834;10.088;2022-09-03T13:04:38;96379.22;;;27.33;44.83
20971;BME280;10644;48.834;10.088;2022-09-03T13:07:13;96387.13;;;27.12;45.31
20971;BME280;10644;48.834;10.088;2022-09-03T13:10:06;96432.72;;;26.91;47.08
20971;BME280;10644;48.834;10.088;2022-09-03T13:32:38;96447.72;;;22.22;51.75
20971;BME280;10644;48.834;10.088;2022-09-03T13:35:11;96459.00;;;22.30;53.19
20971;BME280;10644;48.834;10.088;2022-09-03T13:38:06;96459.38;;;22.43;51.92
20971;BME280;10644;48.834;10.088;2022-09-03T13:40:45;96467.59;;;22.56;52.76
20971;BME280;10644;48.834;10.088;2022-09-03T13:46:28;96470.34;;;22.55;54.18
20971;BME280;10644;48.834;10.088;2022-09-03T13:55:03;96456.41;;;22.30;57.53
20971;BME280;10644;48.834;10.088;2022-09-03T14:06:48;96445.47;;;22.27;57.31
20971;BME280;10644;48.834;10.088;2022-09-03T14:09:47;96445.81;;;22.32;56.35
20971;BME280;10644;48.834;10.088;2022-09-03T14:12:54;96446.03;;;22.46;56.16
20971;BME280;10644;48.834;10.088;2022-09-03T14:18:50;96447.09;;;22.20;58.22
20971;BME280;10644;48.834;10.088;2022-09-03T14:21:53;96452.38;;;22.44;57.26
20971;BME280;10644;48.834;10.088;2022-09-03T14:24:45;96438.38;;;22.61;56.49
20971;BME280;10644;48.834;10.088;2022-09-03T14:27:31;96437.22;;;22.63;57.45
20971;BME280;10644;48.834;10.088;2022-09-03T14:42:22;96421.72;;;22.54;57.93
20971;BME280;10644;48.834;10.088;2022-09-03T14:47:29;96429.56;;;21.96;62.28
20971;BME280;10644;48.834;10.088;2022-09-03T15:02:18;96427.63;;;22.06;61.65
20971;BME280;10644;48.834;10.088;2022-09-03T15:13:30;96443.97;;;22.16;62.85
20971;BME280;10644;48.834;10.088;2022-09-03T15:21:25;96445.28;;;22.20;62.59
20971;BME280;10644;48.834;10.088;2022-09-03T15:24:15;96434.38;;;22.25;61.59
20971;BME280;10644;48.834;10.088;2022-09-03T15:29:38;96434.22;;;22.42;61.23
20971;BME280;10644;48.834;10.088;2022-09-03T15:38:09;96425.94;;;23.11;60.61
20971;BME280;10644;48.834;10.088;2022-09-03T15:40:49;96429.22;;;22.97;61.58
20971;BME280;10644;48.834;10.088;2022-09-03T15:43:30;96429.56;;;22.94;61.71
20971;BME280;10644;48.834;10.088;2022-09-03T15:46:27;96428.56;;;22.95;61.71
20971;BME280;10644;48.834;10.088;2022-09-03T15:49:09;96425.28;;;23.01;61.12
20971;BME280;10644;48.834;10.088;2022-09-03T15:55:11;96418.41;;;23.32;60.72
20971;BME280;10644;48.834;10.088;2022-09-03T15:57:55;96420.84;;;23.33;60.33
20971;BME280;10644;48.834;10.088;2022-09-03T16:00:30;96415.78;;;23.40;59.67
20971;BME280;10644;48.834;10.088;2022-09-03T16:03:08;96418.69;;;23.45;59.54
20971;BME280;10644;48.834;10.088;2022-09-03T16:05:54;96420.69;;;23.43;59.22
20971;BME280;10644;48.834;10.088;2022-09-03T16:20:34;96432.53;;;23.61;59.09
20971;BME280;10644;48.834;10.088;2022-09-03T16:23:35;96425.84;;;23.59;58.78
20971;BME280;10644;48.834;10.088;2022-09-03T16:26:31;96430.13;;;23.60;58.74
20971;BME280;10644;48.834;10.088;2022-09-03T16:29:11;96428.97;;;23.54;58.95
20971;BME280;10644;48.834;10.088;2022-09-03T16:40:02;96431.06;;;23.59;58.31
20971;BME280;10644;48.834;10.088;2022-09-03T16:42:44;96436.63;;;23.64;59.45
20971;BME280;10644;48.834;10.088;2022-09-03T16:54:31;96449.06;;;23.54;59.13
20971;BME280;10644;48.834;10.088;2022-09-03T17:19:47;96436.03;;;23.46;59.77
20971;BME280;10644;48.834;10.088;2022-09-03T17:22:51;96443.19;;;23.52;59.45
20971;BME280;10644;48.834;10.088;2022-09-03T17:38:43;96463.53;;;23.18;60.84
20971;BME280;10644;48.834;10.088;2022-09-03T17:44:57;96462.22;;;22.98;61.31
20971;BME280;10644;48.834;10.088;2022-09-03T17:51:03;96470.53;;;23.09;60.64
20971;BME280;10644;48.834;10.088;2022-09-03T17:56:26;96478.84;;;23.13;60.18
20971;BME280;10644;48.834;10.088;2022-09-03T18:02:00;96494.88;;;23.02;59.89
20971;BME280;10644;48.834;10.088;2022-09-03T18:04:53;96491.13;;;22.96;60.27
20971;BME280;10644;48.834;10.088;2022-09-03T18:16:41;96508.56;;;22.80;60.75
20971;BME280;10644;48.834;10.088;2022-09-03T18:22:59;96513.16;;;22.70;60.09
20971;BME280;10644;48.834;10.088;2022-09-03T18:25:46;96519.03;;;22.72;60.21
20971;BME280;10644;48.834;10.088;2022-09-03T18:32:08;96536.03;;;22.76;60.10
20971;BME280;10644;48.834;10.088;2022-09-03T18:34:58;96537.16;;;22.73;59.68
20971;BME280;10644;48.834;10.088;2022-09-03T18:38:02;96545.16;;;22.72;59.93
20971;BME280;10644;48.834;10.088;2022-09-03T18:41:22;96544.50;;;22.70;60.03
20971;BME280;10644;48.834;10.088;2022-09-03T18:47:48;96558.50;;;22.53;60.71
20971;BME280;10644;48.834;10.088;2022-09-03T18:56:36;96566.66;;;22.58;61.08
20971;BME280;10644;48.834;10.088;2022-09-03T19:03:13;96566.44;;;22.43;59.87
20971;BME280;10644;48.834;10.088;2022-09-03T19:11:45;96563.72;;;22.27;60.35
20971;BME280;10644;48.834;10.088;2022-09-03T19:21:02;96555.41;;;22.24;60.30
20971;BME280;10644;48.834;10.088;2022-09-03T19:23:57;96555.41;;;22.24;60.49
20971;BME280;10644;48.834;10.088;2022-09-03T19:46:13;96583.38;;;22.06;60.94
20971;BME280;10644;48.834;10.088;2022-09-03T19:55:38;96582.00;;;21.94;60.79
20971;BME280;10644;48.834;10.088;2022-09-03T19:58:28;96577.44;;;21.96;61.11
20971;BME280;10644;48.834;10.088;2022-09-03T20:01:39;96593.31;;;22.02;60.60
20971;BME280;10644;48.834;10.088;2022-09-03T20:04:57;96583.97;;;21.92;60.65
20971;BME280;10644;48.834;10.088;2022-09-03T20:07:49;96578.66;;;21.76;61.09
20971;BME280;10644;48.834;10.088;2022-09-03T20:10:46;96588.41;;;21.74;61.09
20971;BME280;10644;48.834;10.088;2022-09-03T20:13:17;96577.47;;;21.70;61.48
20971;BME280;10644;48.834;10.088;2022-09-03T20:16:00;96586.25;;;21.69;61.07
20971;BME280;10644;48.834;10.088;2022-09-03T20:21:24;96580.91;;;21.71;61.25